createdAt,value
2023-04-08T00:00:51.847Z,0.60
2023-04-08T00:06:13.803Z,0.65
2023-04-08T00:11:36.223Z,0.63
2023-04-08T00:16:58.305Z,0.45
2023-04-08T00:22:20.449Z,0.63
2023-04-08T00:27:42.299Z,0.65
2023-04-08T00:33:04.768Z,0.47
2023-04-08T00:38:26.998Z,0.50
2023-04-08T00:43:48.938Z,0.50
2023-04-08T00:49:10.901Z,0.55
2023-04-08T00:54:32.759Z,0.55
2023-04-08T00:59:54.804Z,0.50
2023-04-08T01:05:29.081Z,0.70
2023-04-08T01:10:58.953Z,0.70
2023-04-08T01:16:22.922Z,0.50
2023-04-08T01:21:45.677Z,0.60
2023-04-08T01:27:08.728Z,0.40
2023-04-08T01:32:33.062Z,0.30
2023-04-08T01:37:55.977Z,0.50
2023-04-08T01:43:19.285Z,0.32
2023-04-08T01:48:41.833Z,0.38
2023-04-08T01:54:03.859Z,0.30
2023-04-08T01:59:32.011Z,0.38
2023-04-08T02:04:54.952Z,0.32
2023-04-08T02:10:17.648Z,0.32
2023-04-08T02:15:45.361Z,0.40
2023-04-08T02:21:13.943Z,0.35
2023-04-08T02:26:38.666Z,0.30
2023-04-08T02:32:02.549Z,0.63
2023-04-08T02:37:24.517Z,0.30
2023-04-08T02:42:46.546Z,0.20
2023-04-08T02:48:08.442Z,0.30
2023-04-08T02:53:30.335Z,0.30
2023-04-08T02:58:52.462Z,0.40
2023-04-08T03:04:14.489Z,0.32
2023-04-08T03:09:36.332Z,0.30
2023-04-08T03:14:58.333Z,0.40
2023-04-08T03:20:20.514Z,0.22
2023-04-08T03:25:42.449Z,0.15
2023-04-08T03:31:05.292Z,0.30
2023-04-08T03:36:27.145Z,0.40
2023-04-08T03:41:48.985Z,0.50
2023-04-08T03:47:10.954Z,0.47
2023-04-08T03:52:32.871Z,0.30
2023-04-08T03:57:54.747Z,0.13
2023-04-08T04:03:16.970Z,0.30
2023-04-08T04:08:39.017Z,0.38
2023-04-08T04:14:00.859Z,0.35
2023-04-08T04:19:22.738Z,0.20
2023-04-08T04:24:48.932Z,0.30
2023-04-08T04:30:15.808Z,0.80
2023-04-08T04:35:39.534Z,0.70
2023-04-08T04:41:01.960Z,0.80
2023-04-08T04:46:23.877Z,0.60
2023-04-08T04:51:45.858Z,0.43
2023-04-08T04:57:07.810Z,0.40
2023-04-08T05:02:29.807Z,0.80
2023-04-08T05:07:52.037Z,0.50
2023-04-08T05:13:14.184Z,0.70
2023-04-08T05:18:36.360Z,0.50
2023-04-08T05:23:58.279Z,0.47
2023-04-08T05:29:22.067Z,0.73
2023-04-08T05:34:44.504Z,1.00
2023-04-08T05:40:07.165Z,1.00
2023-04-08T05:45:29.769Z,1.15
2023-04-08T05:50:51.660Z,1.40
2023-04-08T05:56:13.539Z,1.00
2023-04-08T06:01:35.814Z,0.85
2023-04-08T06:07:00.074Z,0.85
2023-04-08T06:12:22.045Z,1.00
2023-04-08T06:17:44.026Z,1.17
2023-04-08T06:23:06.232Z,1.40
2023-04-08T06:28:30.437Z,1.30
2023-04-08T06:33:52.804Z,1.10
2023-04-08T06:39:15.670Z,1.20
2023-04-08T06:44:37.500Z,1.40
2023-04-08T06:49:59.858Z,1.35
2023-04-08T06:55:21.728Z,1.67
2023-04-08T07:00:44.005Z,1.00
2023-04-08T07:06:06.086Z,1.33
2023-04-08T07:11:28.206Z,1.00
2023-04-08T07:16:50.249Z,1.20
2023-04-08T07:22:12.225Z,1.00
2023-04-08T07:27:34.736Z,1.42
2023-04-08T07:33:00.474Z,1.17
2023-04-08T07:38:22.744Z,0.90
2023-04-08T07:43:44.620Z,1.30
2023-04-08T07:49:07.060Z,1.10
2023-04-08T07:54:29.028Z,1.00
2023-04-08T07:59:51.076Z,0.70
2023-04-08T08:05:12.966Z,1.00
2023-04-08T08:10:34.877Z,0.73
2023-04-08T08:15:57.500Z,1.13
2023-04-08T08:21:19.354Z,1.10
2023-04-08T08:26:41.158Z,1.10
2023-04-08T08:32:04.008Z,1.42
2023-04-08T08:37:26.031Z,1.23
2023-04-08T08:42:55.276Z,1.83
2023-04-08T08:48:17.936Z,1.42
2023-04-08T08:53:40.530Z,1.50
2023-04-08T08:59:02.609Z,1.70
2023-04-08T09:04:24.757Z,1.73
2023-04-08T09:09:51.447Z,2.17
2023-04-08T09:15:13.297Z,2.17
2023-04-08T09:20:35.145Z,1.88
2023-04-08T09:26:07.672Z,2.00
2023-04-08T09:31:32.041Z,2.45
2023-04-08T09:36:54.827Z,2.85
2023-04-08T09:42:19.920Z,4.03
2023-04-08T09:48:02.216Z,5.07
2023-04-08T09:53:34.723Z,6.63
2023-04-08T09:59:03.991Z,7.07
2023-04-08T10:04:29.549Z,7.75
2023-04-08T10:09:52.057Z,8.63
2023-04-08T10:15:26.780Z,8.32
2023-04-08T10:20:49.490Z,8.00
2023-04-08T10:26:32.129Z,11.48
2023-04-08T10:31:54.154Z,11.85
2023-04-08T10:37:16.074Z,10.18
2023-04-08T10:42:38.890Z,9.95
2023-04-08T10:48:19.016Z,10.77
2023-04-08T10:53:40.909Z,9.65
2023-04-08T10:59:03.873Z,8.98
2023-04-08T11:04:26.126Z,8.52
2023-04-08T11:09:49.823Z,8.52
2023-04-08T11:15:13.970Z,9.50
2023-04-08T11:20:37.395Z,9.05
2023-04-08T11:25:59.435Z,9.35
2023-04-08T11:31:24.692Z,8.05
2023-04-08T11:42:08.886Z,7.85
2023-04-08T11:47:34.732Z,7.03
2023-04-08T11:52:57.329Z,7.13
2023-04-08T11:58:19.277Z,6.40
2023-04-08T12:03:55.215Z,6.22
2023-04-08T12:09:18.214Z,5.75
2023-04-08T12:14:40.373Z,5.40
2023-04-08T12:20:02.501Z,5.47
2023-04-08T12:25:24.404Z,4.95
2023-04-08T12:30:47.200Z,5.15
2023-04-08T12:36:09.647Z,4.93
2023-04-08T12:41:32.895Z,4.30
2023-04-08T12:46:55.314Z,4.28
2023-04-08T12:52:17.713Z,3.83
2023-04-08T12:57:39.660Z,4.85
2023-04-08T13:03:01.637Z,5.07
2023-04-08T13:08:23.547Z,4.85
2023-04-08T13:13:46.746Z,4.10
2023-04-08T13:19:09.007Z,4.45
2023-04-08T13:24:30.909Z,3.50
2023-04-08T13:29:52.831Z,3.78
2023-04-08T13:35:14.856Z,3.63
2023-04-08T13:40:36.800Z,3.55
2023-04-08T13:45:58.876Z,3.15
2023-04-08T13:51:20.842Z,3.75
2023-04-08T13:56:42.783Z,3.70
2023-04-08T14:02:04.829Z,3.30
2023-04-08T14:07:26.734Z,2.97
2023-04-08T14:12:48.730Z,3.28
2023-04-08T14:18:10.914Z,2.70
2023-04-08T14:23:32.800Z,2.70
2023-04-08T14:28:54.766Z,3.22
2023-04-08T14:34:16.819Z,5.43
2023-04-08T14:39:38.745Z,7.97
2023-04-08T14:45:01.285Z,7.22
2023-04-08T14:50:23.275Z,7.03
2023-04-08T14:55:45.172Z,6.90
2023-04-08T15:01:07.203Z,6.57
2023-04-08T15:06:29.165Z,6.15
2023-04-08T15:11:50.983Z,5.75
2023-04-08T15:17:12.826Z,5.50
2023-04-08T15:22:34.849Z,4.88
2023-04-08T15:27:56.744Z,4.65
2023-04-08T15:33:19.513Z,4.65
2023-04-08T15:38:41.730Z,4.32
2023-04-08T15:44:03.566Z,4.03
2023-04-08T15:49:25.713Z,4.03
2023-04-08T15:54:47.629Z,4.60
2023-04-08T16:00:11.012Z,4.10
2023-04-08T16:05:36.162Z,3.03
2023-04-08T16:11:02.924Z,3.05
2023-04-08T16:16:24.802Z,3.00
2023-04-08T16:21:46.662Z,2.65
2023-04-08T16:27:08.543Z,3.58
2023-04-08T16:32:30.941Z,2.45
2023-04-08T16:37:52.901Z,3.00
2023-04-08T16:43:15.717Z,2.53
2023-04-08T16:48:39.644Z,2.88
2023-04-08T16:54:01.523Z,2.30
2023-04-08T16:59:23.669Z,2.10
2023-04-08T17:04:50.165Z,2.75
2023-04-08T17:10:12.030Z,2.33
2023-04-08T17:15:36.732Z,2.67
2023-04-08T17:20:59.149Z,3.00
2023-04-08T17:26:22.553Z,2.92
2023-04-08T17:31:44.736Z,3.03
2023-04-08T17:37:06.739Z,2.58
2023-04-08T17:42:28.552Z,2.25
2023-04-08T17:47:50.770Z,2.60
2023-04-08T17:53:12.711Z,2.20
2023-04-08T17:58:34.561Z,3.63
2023-04-08T18:03:56.708Z,2.50
2023-04-08T18:09:18.888Z,1.70
2023-04-08T18:14:40.717Z,1.73
2023-04-08T18:20:02.647Z,1.98
2023-04-08T18:25:24.741Z,1.50
2023-04-08T18:30:51.468Z,1.50
2023-04-08T18:36:14.206Z,1.73
2023-04-08T18:41:37.583Z,1.85
2023-04-08T18:46:59.467Z,1.70
2023-04-08T18:52:21.399Z,3.20
2023-04-08T18:57:43.238Z,3.10
2023-04-08T19:03:06.330Z,2.88
2023-04-08T19:08:29.981Z,2.90
2023-04-08T19:13:52.009Z,3.25
2023-04-08T19:19:14.070Z,2.80
2023-04-08T19:24:37.178Z,3.13
2023-04-08T19:29:59.359Z,2.33
2023-04-08T19:35:21.217Z,1.90
2023-04-08T19:40:43.316Z,2.35
2023-04-08T19:46:05.202Z,2.17
2023-04-08T19:51:28.201Z,2.33
2023-04-08T19:56:50.358Z,2.28
2023-04-08T20:02:12.371Z,1.88
2023-04-08T20:07:34.282Z,2.53
2023-04-08T20:12:56.193Z,2.10
2023-04-08T20:18:18.356Z,2.28
2023-04-08T20:23:44.503Z,2.20
2023-04-08T20:29:06.933Z,2.33
2023-04-08T20:34:28.828Z,2.20
2023-04-08T20:39:50.643Z,2.08
2023-04-08T20:45:12.540Z,2.13
2023-04-08T20:50:34.880Z,2.20
2023-04-08T20:55:57.007Z,2.30
2023-04-08T21:01:19.000Z,2.30
2023-04-08T21:06:41.179Z,1.60
2023-04-08T21:12:03.524Z,2.53
2023-04-08T21:17:25.442Z,1.73
2023-04-08T21:22:47.380Z,2.00
2023-04-08T21:28:09.447Z,2.03
2023-04-08T21:33:31.277Z,1.80
2023-04-08T21:38:53.432Z,1.75
2023-04-08T21:44:15.898Z,1.65
2023-04-08T21:49:37.806Z,1.80
2023-04-08T21:54:59.729Z,2.10
2023-04-08T22:00:21.783Z,1.92
2023-04-08T22:05:43.646Z,1.95
2023-04-08T22:11:11.409Z,1.83
2023-04-08T22:16:33.274Z,2.00
2023-04-08T22:21:55.168Z,1.73
2023-04-08T22:27:17.171Z,1.90
2023-04-08T22:32:39.061Z,1.88
2023-04-08T22:38:01.154Z,2.00
2023-04-08T22:43:23.197Z,3.20
2023-04-08T22:48:45.351Z,2.20
2023-04-08T22:54:07.241Z,2.10
2023-04-08T22:59:29.305Z,2.00
2023-04-08T23:04:54.865Z,2.47
2023-04-08T23:15:38.498Z,1.92
2023-04-08T23:21:00.400Z,1.98
2023-04-08T23:26:22.477Z,1.70
2023-04-08T23:31:44.649Z,2.15
2023-04-08T23:37:06.607Z,2.30
2023-04-08T23:42:28.728Z,2.50
2023-04-08T23:47:50.682Z,2.22
2023-04-08T23:53:12.530Z,2.00
2023-04-08T23:58:34.798Z,2.40
